sensor_id;sensor_type;location;lat;lon;timestamp;pressure;altitude;pressure_sealevel;temperature;humidity
72855;BME280;60991;51.278;22.550;2023-03-21T00:00:16;98943.28;;;11.01;74.58
72855;BME280;60991;51.278;22.550;2023-03-21T00:01:51;98943.34;;;11.06;74.48
72855;BME280;60991;51.278;22.550;2023-03-21T00:03:21;98943.47;;;10.90;74.93
72855;BME280;60991;51.278;22.550;2023-03-21T00:04:52;98942.09;;;10.87;74.86
72855;BME280;60991;51.278;22.550;2023-03-21T00:06:22;98940.25;;;10.88;74.94
72855;BME280;60991;51.278;22.550;2023-03-21T00:07:52;98930.72;;;10.92;74.94
72855;BME280;60991;51.278;22.550;2023-03-21T00:09:23;98932.03;;;10.89;74.85
72855;BME280;60991;51.278;22.550;2023-03-21T00:10:57;98931.78;;;10.91;74.92
72855;BME280;60991;51.278;22.550;2023-03-21T00:12:27;98923.34;;;10.72;75.46
72855;BME280;60991;51.278;22.550;2023-03-21T00:13:57;98911.69;;;10.73;75.43
72855;BME280;60991;51.278;22.550;2023-03-21T00:15:28;98914.38;;;10.51;76.01
72855;BME280;60991;51.278;22.550;2023-03-21T00:16:58;98913.06;;;10.54;76.33
72855;BME280;60991;51.278;22.550;2023-03-21T00:18:28;98922.41;;;10.56;75.97
72855;BME280;60991;51.278;22.550;2023-03-21T00:19:59;98918.81;;;10.46;76.46
72855;BME280;60991;51.278;22.550;2023-03-21T00:21:29;98927.75;;;10.39;76.58
72855;BME280;60991;51.278;22.550;2023-03-21T00:23:00;98924.31;;;10.39;76.61
72855;BME280;60991;51.278;22.550;2023-03-21T00:24:30;98921.94;;;10.43;76.64
72855;BME280;60991;51.278;22.550;2023-03-21T00:26:01;98918.56;;;10.47;76.41
72855;BME280;60991;51.278;22.550;2023-03-21T00:27:31;98923.13;;;10.52;75.73
72855;BME280;60991;51.278;22.550;2023-03-21T00:29:01;98915.81;;;10.64;75.75
72855;BME280;60991;51.278;22.550;2023-03-21T00:30:32;98925.41;;;10.43;76.19
72855;BME280;60991;51.278;22.550;2023-03-21T00:32:02;98925.78;;;10.52;75.85
72855;BME280;60991;51.278;22.550;2023-03-21T00:33:33;98919.53;;;10.63;75.55
72855;BME280;60991;51.278;22.550;2023-03-21T00:35:03;98914.22;;;10.63;75.47
72855;BME280;60991;51.278;22.550;2023-03-21T00:36:34;98919.59;;;10.68;74.87
72855;BME280;60991;51.278;22.550;2023-03-21T00:38:04;98918.59;;;10.74;74.92
72855;BME280;60991;51.278;22.550;2023-03-21T00:39:34;98919.53;;;10.63;75.17
72855;BME280;60991;51.278;22.550;2023-03-21T00:41:06;98913.16;;;10.64;75.00
72855;BME280;60991;51.278;22.550;2023-03-21T00:42:37;98917.13;;;10.61;75.40
72855;BME280;60991;51.278;22.550;2023-03-21T00:44:08;98916.13;;;10.67;75.05
72855;BME280;60991;51.278;22.550;2023-03-21T00:45:38;98913.16;;;10.64;75.03
72855;BME280;60991;51.278;22.550;2023-03-21T00:47:10;98920.22;;;10.53;75.53
72855;BME280;60991;51.278;22.550;2023-03-21T00:48:41;98912.63;;;10.40;75.96
72855;BME280;60991;51.278;22.550;2023-03-21T00:50:11;98914.22;;;10.41;75.93
72855;BME280;60991;51.278;22.550;2023-03-21T00:51:42;98910.28;;;10.44;75.77
72855;BME280;60991;51.278;22.550;2023-03-21T00:53:13;98917.44;;;10.43;75.64
72855;BME280;60991;51.278;22.550;2023-03-21T00:54:44;98917.44;;;10.43;75.80
72855;BME280;60991;51.278;22.550;2023-03-21T00:56:14;98906.28;;;10.41;75.96
72855;BME280;60991;51.278;22.550;2023-03-21T00:57:44;98909.25;;;10.23;76.59
72855;BME280;60991;51.278;22.550;2023-03-21T00:59:17;98906.72;;;10.33;76.19
72855;BME280;60991;51.278;22.550;2023-03-21T01:00:47;98912.22;;;10.26;76.57
72855;BME280;60991;51.278;22.550;2023-03-21T01:02:17;98906.34;;;10.24;76.38
72855;BME280;60991;51.278;22.550;2023-03-21T01:03:47;98903.19;;;10.27;76.59
72855;BME280;60991;51.278;22.550;2023-03-21T01:05:18;98900.69;;;10.37;76.13
72855;BME280;60991;51.278;22.550;2023-03-21T01:06:48;98905.13;;;10.32;76.35
72855;BME280;60991;51.278;22.550;2023-03-21T01:08:20;98909.63;;;10.31;76.38
72855;BME280;60991;51.278;22.550;2023-03-21T01:09:50;98909.97;;;10.40;75.90
72855;BME280;60991;51.278;22.550;2023-03-21T01:11:24;98906.34;;;10.46;75.77
72855;BME280;60991;51.278;22.550;2023-03-21T01:12:54;98912.50;;;10.52;75.54
72855;BME280;60991;51.278;22.550;2023-03-21T01:14:24;98916.03;;;10.57;75.55
72855;BME280;60991;51.278;22.550;2023-03-21T01:15:56;98904.91;;;10.60;75.03
72855;BME280;60991;51.278;22.550;2023-03-21T01:17:26;98906.91;;;10.48;75.48
72855;BME280;60991;51.278;22.550;2023-03-21T01:18:56;98902.38;;;10.49;75.68
72855;BME280;60991;51.278;22.550;2023-03-21T01:20:27;98901.66;;;10.53;75.24
72855;BME280;60991;51.278;22.550;2023-03-21T01:21:57;98904.72;;;10.45;75.58
72855;BME280;60991;51.278;22.550;2023-03-21T01:23:28;98904.72;;;10.45;75.79
72855;BME280;60991;51.278;22.550;2023-03-21T01:24:58;98899.66;;;10.44;75.84
72855;BME280;60991;51.278;22.550;2023-03-21T01:26:29;98904.56;;;10.52;75.31
72855;BME280;60991;51.278;22.550;2023-03-21T01:27:59;98906.41;;;10.51;75.22
72855;BME280;60991;51.278;22.550;2023-03-21T01:29:29;98900.78;;;10.48;75.54
72855;BME280;60991;51.278;22.550;2023-03-21T01:31:01;98906.72;;;10.55;75.07
72855;BME280;60991;51.278;22.550;2023-03-21T01:32:32;98901.97;;;10.57;74.84
72855;BME280;60991;51.278;22.550;2023-03-21T01:34:02;98907.22;;;10.52;75.47
72855;BME280;60991;51.278;22.550;2023-03-21T01:35:35;98905.66;;;10.56;75.14
72855;BME280;60991;51.278;22.550;2023-03-21T01:37:05;98903.53;;;10.58;75.12
72855;BME280;60991;51.278;22.550;2023-03-21T01:38:36;98901.19;;;10.61;75.00
72855;BME280;60991;51.278;22.550;2023-03-21T01:40:07;98913.16;;;10.64;74.70
72855;BME280;60991;51.278;22.550;2023-03-21T01:41:39;98904.66;;;10.62;74.86
72855;BME280;60991;51.278;22.550;2023-03-21T01:43:24;98907.38;;;10.67;74.83
72855;BME280;60991;51.278;22.550;2023-03-21T01:45:04;98905.75;;;10.66;74.90
72855;BME280;60991;51.278;22.550;2023-03-21T01:48:07;98906.94;;;10.75;74.28
72855;BME280;60991;51.278;22.550;2023-03-21T01:49:40;98905.28;;;10.69;74.16
72855;BME280;60991;51.278;22.550;2023-03-21T01:51:12;98905.75;;;10.66;74.47
72855;BME280;60991;51.278;22.550;2023-03-21T01:52:43;98905.75;;;10.66;74.53
72855;BME280;60991;51.278;22.550;2023-03-21T01:54:20;98906.00;;;10.64;74.62
72855;BME280;60991;51.278;22.550;2023-03-21T01:55:53;98907.06;;;10.63;74.33
72855;BME280;60991;51.278;22.550;2023-03-21T01:57:34;98906.31;;;10.68;74.58
72855;BME280;60991;51.278;22.550;2023-03-21T01:59:10;98904.53;;;10.73;74.24
72855;BME280;60991;51.278;22.550;2023-03-21T02:00:41;98900.81;;;10.74;74.43
72855;BME280;60991;51.278;22.550;2023-03-21T02:02:16;98905.28;;;10.69;74.43
72855;BME280;60991;51.278;22.550;2023-03-21T02:03:49;98900.28;;;10.72;74.36
72855;BME280;60991;51.278;22.550;2023-03-21T02:05:30;98911.69;;;10.73;74.38
72855;BME280;60991;51.278;22.550;2023-03-21T02:07:10;98904.16;;;10.65;74.73
72855;BME280;60991;51.278;22.550;2023-03-21T02:08:41;98909.78;;;10.68;74.46
72855;BME280;60991;51.278;22.550;2023-03-21T02:10:12;98906.63;;;10.71;74.39
72855;BME280;60991;51.278;22.550;2023-03-21T02:11:44;98909.28;;;10.71;74.32
72855;BME280;60991;51.278;22.550;2023-03-21T02:13:15;98910.09;;;10.72;74.42
72855;BME280;60991;51.278;22.550;2023-03-21T02:14:50;98910.88;;;10.72;74.32
72855;BME280;60991;51.278;22.550;2023-03-21T02:16:39;98912.75;;;10.72;74.12
72855;BME280;60991;51.278;22.550;2023-03-21T02:24:00;98913.03;;;10.75;74.10
72855;BME280;60991;51.278;22.550;2023-03-21T02:27:14;98913.03;;;10.75;74.15
72855;BME280;60991;51.278;22.550;2023-03-21T02:28:57;98911.06;;;10.66;74.47
72855;BME280;60991;51.278;22.550;2023-03-21T02:34:25;98916.03;;;10.57;74.99
72855;BME280;60991;51.278;22.550;2023-03-21T02:36:16;98921.34;;;10.57;75.03
72855;BME280;60991;51.278;22.550;2023-03-21T02:40:48;98916.53;;;10.54;75.24
72855;BME280;60991;51.278;22.550;2023-03-21T02:42:36;98922.91;;;10.58;74.99
72855;BME280;60991;51.278;22.550;2023-03-21T02:43:47;98915.47;;;10.55;74.96
72855;BME280;60991;51.278;22.550;2023-03-21T02:45:24;98921.59;;;10.56;74.97
72855;BME280;60991;51.278;22.550;2023-03-21T02:47:05;98916.78;;;10.53;75.24
72855;BME280;60991;51.278;22.550;2023-03-21T02:48:51;98917.56;;;10.53;75.00
72855;BME280;60991;51.278;22.550;2023-03-21T02:50:40;98917.56;;;10.53;75.16
72855;BME280;60991;51.278;22.550;2023-03-21T02:52:19;98913.63;;;10.56;74.99
72855;BME280;60991;51.278;22.550;2023-03-21T02:53:55;98915.09;;;10.47;75.28
72855;BME280;60991;51.278;22.550;2023-03-21T02:55:30;98916.72;;;10.48;75.36
72855;BME280;60991;51.278;22.550;2023-03-21T02:57:02;98918.56;;;10.47;75.34
72855;BME280;60991;51.278;22.550;2023-03-21T02:58:33;98920.84;;;10.38;75.55
72855;BME280;60991;51.278;22.550;2023-03-21T03:00:05;98919.44;;;10.31;75.58
72855;BME280;60991;51.278;22.550;2023-03-21T03:01:35;98917.25;;;10.28;76.07
72855;BME280;60991;51.278;22.550;2023-03-21T03:03:08;98920.09;;;10.21;76.31
72855;BME280;60991;51.278;22.550;2023-03-21T03:04:38;98911.88;;;10.23;76.32
72855;BME280;60991;51.278;22.550;2023-03-21T03:06:36;98920.66;;;10.23;76.19
72855;BME280;60991;51.278;22.550;2023-03-21T03:09:58;98920.09;;;10.21;76.48
72855;BME280;60991;51.278;22.550;2023-03-21T03:11:37;98918.75;;;10.02;76.75
72855;BME280;60991;51.278;22.550;2023-03-21T03:15:44;98922.91;;;10.15;76.55
72855;BME280;60991;51.278;22.550;2023-03-21T03:19:30;98926.84;;;10.12;76.53
72855;BME280;60991;51.278;22.550;2023-03-21T03:21:17;98917.72;;;10.20;76.54
72855;BME280;60991;51.278;22.550;2023-03-21T03:22:54;98918.75;;;10.02;76.50
72855;BME280;60991;51.278;22.550;2023-03-21T03:24:33;98921.56;;;10.12;76.51
72855;BME280;60991;51.278;22.550;2023-03-21T03:26:11;98922.53;;;10.06;76.42
72855;BME280;60991;51.278;22.550;2023-03-21T03:27:45;98919.38;;;10.09;76.42
72855;BME280;60991;51.278;22.550;2023-03-21T03:29:17;98921.16;;;10.20;76.30
72855;BME280;60991;51.278;22.550;2023-03-21T03:30:49;98924.66;;;10.26;75.78
72855;BME280;60991;51.278;22.550;2023-03-21T03:32:27;98928.13;;;10.26;75.81
72855;BME280;60991;51.278;22.550;2023-03-21T03:34:04;98923.84;;;10.25;75.90
72855;BME280;60991;51.278;22.550;2023-03-21T03:35:35;98924.59;;;10.21;76.14
72855;BME280;60991;51.278;22.550;2023-03-21T03:37:09;98926.38;;;10.15;76.05
72855;BME280;60991;51.278;22.550;2023-03-21T03:38:41;98923.47;;;10.17;76.04
72855;BME280;60991;51.278;22.550;2023-03-21T03:40:24;98917.72;;;10.20;76.13
72855;BME280;60991;51.278;22.550;2023-03-21T03:42:05;98922.25;;;10.24;76.04
72855;BME280;60991;51.278;22.550;2023-03-21T03:43:50;98922.09;;;10.14;76.10
72855;BME280;60991;51.278;22.550;2023-03-21T03:45:29;98930.72;;;10.04;76.30
72855;BME280;60991;51.278;22.550;2023-03-21T03:47:07;98923.44;;;9.95;76.90
72855;BME280;60991;51.278;22.550;2023-03-21T03:48:55;98923.31;;;10.06;76.44
72855;BME280;60991;51.278;22.550;2023-03-21T03:50:51;98915.84;;;10.03;76.57
72855;BME280;60991;51.278;22.550;2023-03-21T03:52:28;98922.59;;;10.11;76.24
72855;BME280;60991;51.278;22.550;2023-03-21T03:54:03;98929.88;;;9.99;76.51
72855;BME280;60991;51.278;22.550;2023-03-21T03:55:35;98932.31;;;10.05;76.25
72855;BME280;60991;51.278;22.550;2023-03-21T03:57:06;98935.22;;;10.04;76.52
72855;BME280;60991;51.278;22.550;2023-03-21T03:58:38;98926.28;;;10.10;76.40
72855;BME280;60991;51.278;22.550;2023-03-21T04:00:10;98931.66;;;10.15;76.06
72855;BME280;60991;51.278;22.550;2023-03-21T04:01:41;98927.78;;;10.01;76.24
72855;BME280;60991;51.278;22.550;2023-03-21T04:03:12;98929.94;;;9.87;77.22
72855;BME280;60991;51.278;22.550;2023-03-21T04:04:42;98932.53;;;9.99;76.85
72855;BME280;60991;51.278;22.550;2023-03-21T04:06:12;98934.13;;;10.00;76.97
72855;BME280;60991;51.278;22.550;2023-03-21T04:07:42;98934.59;;;9.97;76.93
72855;BME280;60991;51.278;22.550;2023-03-21T04:09:13;98930.94;;;9.81;77.14
72855;BME280;60991;51.278;22.550;2023-03-21T04:10:43;98928.94;;;9.71;77.50
72855;BME280;60991;51.278;22.550;2023-03-21T04:12:13;98931.50;;;9.83;77.42
72855;BME280;60991;51.278;22.550;2023-03-21T04:13:44;98932.84;;;9.86;77.42
72855;BME280;60991;51.278;22.550;2023-03-21T04:15:14;98928.53;;;9.80;77.41
72855;BME280;60991;51.278;22.550;2023-03-21T04:16:45;98937.38;;;9.68;78.00
72855;BME280;60991;51.278;22.550;2023-03-21T04:18:15;98931.81;;;9.70;77.56
72855;BME280;60991;51.278;22.550;2023-03-21T04:19:45;98931.34;;;9.73;77.50
72855;BME280;60991;51.278;22.550;2023-03-21T04:21:15;98935.19;;;9.65;78.22
72855;BME280;60991;51.278;22.550;2023-03-21T04:22:46;98934.72;;;9.68;77.68
72855;BME280;60991;51.278;22.550;2023-03-21T04:24:16;98935.38;;;9.59;78.19
72855;BME280;60991;51.278;22.550;2023-03-21T04:25:46;98939.69;;;9.65;77.84
72855;BME280;60991;51.278;22.550;2023-03-21T04:27:16;98936.91;;;9.55;78.43
72855;BME280;60991;51.278;22.550;2023-03-21T04:28:47;98938.66;;;9.49;78.76
72855;BME280;60991;51.278;22.550;2023-03-21T04:30:18;98935.28;;;9.54;78.81
72855;BME280;60991;51.278;22.550;2023-03-21T04:31:48;98935.13;;;9.60;78.32
72855;BME280;60991;51.278;22.550;2023-03-21T04:33:18;98937.94;;;9.70;77.88
72855;BME280;60991;51.278;22.550;2023-03-21T04:34:49;98930.63;;;9.78;77.57
72855;BME280;60991;51.278;22.550;2023-03-21T04:36:19;98928.22;;;9.76;77.88
72855;BME280;60991;51.278;22.550;2023-03-21T04:37:49;98933.09;;;9.84;77.66
72855;BME280;60991;51.278;22.550;2023-03-21T04:39:20;98929.47;;;9.90;77.27
72855;BME280;60991;51.278;22.550;2023-03-21T04:40:51;98933.03;;;9.79;77.51
72855;BME280;60991;51.278;22.550;2023-03-21T04:42:21;98937.53;;;9.79;77.70
72855;BME280;60991;51.278;22.550;2023-03-21T04:43:52;98930.13;;;9.81;77.25
72855;BME280;60991;51.278;22.550;2023-03-21T04:45:22;98936.06;;;9.88;77.39
72855;BME280;60991;51.278;22.550;2023-03-21T04:46:52;98932.34;;;9.89;77.09
72855;BME280;60991;51.278;22.550;2023-03-21T04:48:22;98932.91;;;9.91;77.08
72855;BME280;60991;51.278;22.550;2023-03-21T04:49:53;98937.09;;;9.87;76.73
72855;BME280;60991;51.278;22.550;2023-03-21T04:51:23;98936.13;;;9.93;76.99
72855;BME280;60991;51.278;22.550;2023-03-21T04:52:53;98942.03;;;9.78;77.00
72855;BME280;60991;51.278;22.550;2023-03-21T04:54:24;98941.81;;;9.63;77.46
72855;BME280;60991;51.278;22.550;2023-03-21T04:55:54;98938.72;;;9.71;77.52
72855;BME280;60991;51.278;22.550;2023-03-21T04:57:24;98939.97;;;9.63;77.78
72855;BME280;60991;51.278;22.550;2023-03-21T04:58:55;98938.50;;;9.56;77.93
72855;BME280;60991;51.278;22.550;2023-03-21T05:00:25;98939.06;;;9.58;77.85
72855;BME280;60991;51.278;22.550;2023-03-21T05:01:56;98949.50;;;9.64;77.46
72855;BME280;60991;51.278;22.550;2023-03-21T05:03:26;98938.28;;;9.41;78.43
72855;BME280;60991;51.278;22.550;2023-03-21T05:04:56;98941.97;;;9.40;78.74
72855;BME280;60991;51.278;22.550;2023-03-21T05:06:27;98932.06;;;9.52;78.20
72855;BME280;60991;51.278;22.550;2023-03-21T05:07:57;98936.34;;;9.53;78.26
72855;BME280;60991;51.278;22.550;2023-03-21T05:09:27;98941.31;;;9.49;78.04
72855;BME280;60991;51.278;22.550;2023-03-21T05:10:58;98939.06;;;9.58;78.32
72855;BME280;60991;51.278;22.550;2023-03-21T05:12:28;98944.75;;;9.66;77.99
72855;BME280;60991;51.278;22.550;2023-03-21T05:13:58;98941.56;;;9.64;77.93
72855;BME280;60991;51.278;22.550;2023-03-21T05:15:28;98938.81;;;9.76;77.45
72855;BME280;60991;51.278;22.550;2023-03-21T05:16:58;98940.81;;;9.52;77.61
72855;BME280;60991;51.278;22.550;2023-03-21T05:18:29;98939.97;;;9.63;77.81
72855;BME280;60991;51.278;22.550;2023-03-21T05:19:59;98940.56;;;9.70;77.63
72855;BME280;60991;51.278;22.550;2023-03-21T05:21:30;98930.13;;;9.81;77.05
72855;BME280;60991;51.278;22.550;2023-03-21T05:23:01;98934.69;;;9.85;76.80
72855;BME280;60991;51.278;22.550;2023-03-21T05:24:31;98938.22;;;9.91;76.87
72855;BME280;60991;51.278;22.550;2023-03-21T05:26:02;98947.31;;;9.95;76.61
72855;BME280;60991;51.278;22.550;2023-03-21T05:27:32;98949.78;;;10.01;76.48
72855;BME280;60991;51.278;22.550;2023-03-21T05:29:02;98945.25;;;10.02;76.34
72855;BME280;60991;51.278;22.550;2023-03-21T05:30:33;98946.88;;;10.03;76.12
72855;BME280;60991;51.278;22.550;2023-03-21T05:32:03;98946.38;;;10.06;76.17
72855;BME280;60991;51.278;22.550;2023-03-21T05:33:33;98948.22;;;10.05;75.87
72855;BME280;60991;51.278;22.550;2023-03-21T05:35:04;98947.44;;;10.05;76.00
72855;BME280;60991;51.278;22.550;2023-03-21T05:36:34;98947.19;;;10.06;75.81
72855;BME280;60991;51.278;22.550;2023-03-21T05:38:04;98958.13;;;10.10;76.23
72855;BME280;60991;51.278;22.550;2023-03-21T05:39:35;98956.28;;;10.11;75.91
72855;BME280;60991;51.278;22.550;2023-03-21T05:41:05;98954.34;;;10.06;75.96
72855;BME280;60991;51.278;22.550;2023-03-21T05:42:35;98956.28;;;10.11;75.80
72855;BME280;60991;51.278;22.550;2023-03-21T05:44:05;98951.75;;;10.11;75.84
72855;BME280;60991;51.278;22.550;2023-03-21T05:45:36;98956.84;;;10.13;76.04
72855;BME280;60991;51.278;22.550;2023-03-21T05:47:06;98952.31;;;10.13;76.03
72855;BME280;60991;51.278;22.550;2023-03-21T05:48:36;98955.78;;;10.14;75.83
72855;BME280;60991;51.278;22.550;2023-03-21T05:50:08;98952.88;;;10.15;76.12
72855;BME280;60991;51.278;22.550;2023-03-21T05:51:38;98957.94;;;10.17;75.89
72855;BME280;60991;51.278;22.550;2023-03-21T05:53:08;98966.25;;;10.20;76.03
72855;BME280;60991;51.278;22.550;2023-03-21T05:54:38;98964.13;;;10.22;75.68
72855;BME280;60991;51.278;22.550;2023-03-21T05:56:09;98962.38;;;10.28;75.90
72855;BME280;60991;51.278;22.550;2023-03-21T05:57:39;98965.50;;;10.25;75.69
72855;BME280;60991;51.278;22.550;2023-03-21T05:59:09;98966.63;;;10.12;76.03
72855;BME280;60991;51.278;22.550;2023-03-21T06:00:39;98966.53;;;10.24;75.88
72855;BME280;60991;51.278;22.550;2023-03-21T06:02:10;98962.59;;;10.26;75.76
72855;BME280;60991;51.278;22.550;2023-03-21T06:03:40;98963.00;;;10.18;75.75
72855;BME280;60991;51.278;22.550;2023-03-21T06:05:10;98963.66;;;10.25;75.78
72855;BME280;60991;51.278;22.550;2023-03-21T06:06:41;98970.50;;;10.21;75.82
72855;BME280;60991;51.278;22.550;2023-03-21T06:08:11;98974.22;;;10.20;75.82
72855;BME280;60991;51.278;22.550;2023-03-21T06:09:41;98977.09;;;10.19;75.19
72855;BME280;60991;51.278;22.550;2023-03-21T06:11:19;98973.06;;;10.16;75.58
72855;BME280;60991;51.278;22.550;2023-03-21T06:12:52;98976.28;;;10.18;75.27
72855;BME280;60991;51.278;22.550;2023-03-21T06:14:23;98978.44;;;10.21;75.46
72855;BME280;60991;51.278;22.550;2023-03-21T06:15:53;98971.81;;;10.19;75.52
72855;BME280;60991;51.278;22.550;2023-03-21T06:17:23;98977.09;;;9.85;76.21
72855;BME280;60991;51.278;22.550;2023-03-21T06:18:54;98972.84;;;9.67;76.68
72855;BME280;60991;51.278;22.550;2023-03-21T06:20:24;98972.84;;;9.84;76.40
72855;BME280;60991;51.278;22.550;2023-03-21T06:21:55;98985.72;;;9.92;76.19
72855;BME280;60991;51.278;22.550;2023-03-21T06:23:25;98974.88;;;9.77;76.49
72855;BME280;60991;51.278;22.550;2023-03-21T06:24:55;98976.97;;;9.75;76.59
72855;BME280;60991;51.278;22.550;2023-03-21T06:26:25;98975.44;;;9.62;77.07
72855;BME280;60991;51.278;22.550;2023-03-21T06:27:56;98981.47;;;9.58;77.27
72855;BME280;60991;51.278;22.550;2023-03-21T06:29:26;98973.44;;;9.69;76.96
72855;BME280;60991;51.278;22.550;2023-03-21T06:30:56;98981.63;;;9.68;76.79
72855;BME280;60991;51.278;22.550;2023-03-21T06:32:26;98981.47;;;9.75;76.85
72855;BME280;60991;51.278;22.550;2023-03-21T06:33:57;98984.59;;;9.71;76.89
72855;BME280;60991;51.278;22.550;2023-03-21T06:35:27;98981.63;;;9.68;77.08
72855;BME280;60991;51.278;22.550;2023-03-21T06:36:57;98986.53;;;9.76;77.14
72855;BME280;60991;51.278;22.550;2023-03-21T06:38:27;98983.69;;;9.66;76.91
72855;BME280;60991;51.278;22.550;2023-03-21T06:39:57;98990.03;;;9.48;77.72
72855;BME280;60991;51.278;22.550;2023-03-21T06:41:28;98989.88;;;9.55;77.67
72855;BME280;60991;51.278;22.550;2023-03-21T06:42:58;98999.53;;;9.61;77.32
72855;BME280;60991;51.278;22.550;2023-03-21T06:44:28;98999.59;;;9.49;77.30
72855;BME280;60991;51.278;22.550;2023-03-21T06:45:59;98997.44;;;9.46;78.08
72855;BME280;60991;51.278;22.550;2023-03-21T06:47:29;98998.06;;;9.53;78.08
72855;BME280;60991;51.278;22.550;2023-03-21T06:48:59;99000.41;;;9.50;77.83
72855;BME280;60991;51.278;22.550;2023-03-21T06:50:30;98997.03;;;9.37;78.29
72855;BME280;60991;51.278;22.550;2023-03-21T06:52:00;98999.75;;;9.26;78.76
72855;BME280;60991;51.278;22.550;2023-03-21T06:53:30;98999.44;;;9.39;78.05
72855;BME280;60991;51.278;22.550;2023-03-21T06:55:00;99006.50;;;9.50;78.24
72855;BME280;60991;51.278;22.550;2023-03-21T06:56:31;98998.16;;;9.58;77.97
72855;BME280;60991;51.278;22.550;2023-03-21T06:58:01;98990.31;;;9.63;77.77
72855;BME280;60991;51.278;22.550;2023-03-21T06:59:31;98998.50;;;9.79;77.35
72855;BME280;60991;51.278;22.550;2023-03-21T07:01:02;99006.03;;;9.70;77.05
72855;BME280;60991;51.278;22.550;2023-03-21T07:02:33;98997.69;;;9.61;76.57
72855;BME280;60991;51.278;22.550;2023-03-21T07:04:03;99005.78;;;9.55;76.95
72855;BME280;60991;51.278;22.550;2023-03-21T07:05:36;99005.66;;;9.61;77.22
72855;BME280;60991;51.278;22.550;2023-03-21T07:07:07;99005.94;;;9.48;77.40
72855;BME280;60991;51.278;22.550;2023-03-21T07:08:40;99016.47;;;9.43;77.52
72855;BME280;60991;51.278;22.550;2023-03-21T07:10:11;99008.09;;;9.51;77.64
72855;BME280;60991;51.278;22.550;2023-03-21T07:11:41;99013.25;;;9.41;77.82
72855;BME280;60991;51.278;22.550;2023-03-21T07:13:12;99010.44;;;9.48;77.57
72855;BME280;60991;51.278;22.550;2023-03-21T07:14:42;99009.22;;;9.38;77.36
72855;BME280;60991;51.278;22.550;2023-03-21T07:16:16;99011.78;;;9.50;77.11
72855;BME280;60991;51.278;22.550;2023-03-21T07:17:46;99011.63;;;9.40;76.40
72855;BME280;60991;51.278;22.550;2023-03-21T07:19:17;99011.53;;;9.35;76.67
72855;BME280;60991;51.278;22.550;2023-03-21T07:20:49;99018.69;;;9.34;75.76
72855;BME280;60991;51.278;22.550;2023-03-21T07:22:19;99007.69;;;9.26;76.24
72855;BME280;60991;51.278;22.550;2023-03-21T07:23:49;99013.25;;;9.41;75.86
72855;BME280;60991;51.278;22.550;2023-03-21T07:25:20;99015.25;;;9.51;75.50
72855;BME280;60991;51.278;22.550;2023-03-21T07:26:50;99015.91;;;9.41;75.04
72855;BME280;60991;51.278;22.550;2023-03-21T07:28:21;99011.53;;;9.35;75.04
72855;BME280;60991;51.278;22.550;2023-03-21T07:29:51;99007.84;;;9.36;75.17
72855;BME280;60991;51.278;22.550;2023-03-21T07:31:22;99014.91;;;9.30;75.79
72855;BME280;60991;51.278;22.550;2023-03-21T07:32:52;99012.88;;;9.21;76.40
72855;BME280;60991;51.278;22.550;2023-03-21T07:34:22;99015.78;;;9.36;76.19
72855;BME280;60991;51.278;22.550;2023-03-21T07:35:53;99017.84;;;9.46;76.27
72855;BME280;60991;51.278;22.550;2023-03-21T07:37:24;99015.91;;;9.58;75.95
72855;BME280;60991;51.278;22.550;2023-03-21T07:38:54;99018.88;;;9.45;76.33
72855;BME280;60991;51.278;22.550;2023-03-21T07:40:24;99010.13;;;9.61;76.00
72855;BME280;60991;51.278;22.550;2023-03-21T07:41:55;99024.09;;;9.56;75.76
72855;BME280;60991;51.278;22.550;2023-03-21T07:43:25;99018.31;;;9.43;76.44
72855;BME280;60991;51.278;22.550;2023-03-21T07:44:55;99020.22;;;9.47;76.78
72855;BME280;60991;51.278;22.550;2023-03-21T07:46:25;99010.84;;;9.56;76.32
72855;BME280;60991;51.278;22.550;2023-03-21T07:47:56;99022.66;;;9.65;76.23
72855;BME280;60991;51.278;22.550;2023-03-21T07:49:26;99018.97;;;9.83;75.34
72855;BME280;60991;51.278;22.550;2023-03-21T07:50:56;99021.06;;;9.64;75.75
72855;BME280;60991;51.278;22.550;2023-03-21T07:52:26;99023.53;;;9.54;76.13
72855;BME280;60991;51.278;22.550;2023-03-21T07:53:56;99023.75;;;9.53;76.49
72855;BME280;60991;51.278;22.550;2023-03-21T07:55:27;99015.25;;;9.51;76.43
72855;BME280;60991;51.278;22.550;2023-03-21T07:56:57;99023.19;;;9.51;76.71
72855;BME280;60991;51.278;22.550;2023-03-21T07:58:27;99022.59;;;9.60;76.97
72855;BME280;60991;51.278;22.550;2023-03-21T07:59:57;99024.50;;;9.65;76.84
72855;BME280;60991;51.278;22.550;2023-03-21T08:01:28;99028.59;;;9.72;76.64
72855;BME280;60991;51.278;22.550;2023-03-21T08:02:58;99028.75;;;9.66;75.78
72855;BME280;60991;51.278;22.550;2023-03-21T08:04:28;99030.59;;;9.49;76.39
72855;BME280;60991;51.278;22.550;2023-03-21T08:05:59;99030.00;;;9.47;76.88
72855;BME280;60991;51.278;22.550;2023-03-21T08:07:29;99026.75;;;9.56;76.35
72855;BME280;60991;51.278;22.550;2023-03-21T08:08:59;99032.72;;;9.63;76.77
72855;BME280;60991;51.278;22.550;2023-03-21T08:10:30;99031.91;;;9.80;76.44
72855;BME280;60991;51.278;22.550;2023-03-21T08:12:00;99024.91;;;9.90;75.89
72855;BME280;60991;51.278;22.550;2023-03-21T08:13:31;99029.41;;;9.90;75.23
72855;BME280;60991;51.278;22.550;2023-03-21T08:15:01;99027.88;;;9.94;75.38
72855;BME280;60991;51.278;22.550;2023-03-21T08:16:31;99037.13;;;10.08;75.50
72855;BME280;60991;51.278;22.550;2023-03-21T08:18:02;99034.69;;;10.06;75.11
72855;BME280;60991;51.278;22.550;2023-03-21T08:19:32;99029.41;;;10.06;74.17
72855;BME280;60991;51.278;22.550;2023-03-21T08:21:02;99024.59;;;9.87;73.68
72855;BME280;60991;51.278;22.550;2023-03-21T08:22:33;99029.97;;;9.75;75.18
72855;BME280;60991;51.278;22.550;2023-03-21T08:24:04;99030.31;;;9.79;74.85
72855;BME280;60991;51.278;22.550;2023-03-21T08:25:34;99030.63;;;9.82;73.16